Kezdőlap
METAR-TAF:

METAR-TAF

Repülőterek :

Reading Regional Airport (Carl A. Spaatz Field)

Reading, Pennsylvania, Amerikai Egyesült Államok

földrajzi szélesség: 40-22-24N, földrajzi hosszúság: 075-57-34W, magasság: 105 m

Jelenlegi meteorológiai megfigyelések

A jelentés 34 perccel ezelõtt készült, 19:54 UTC
Nyugat-délnyugati szél 13 kt széllökések: 18 kt
Hőmérséklet 11°C
Páratartalom 15%
Légköri nyomás 1022 hPa
Látótávolság: 16.1 km
Derült ég

METAR: KRDG 221954Z 25013G18KT 10SM CLR 11/M15 A3019 RMK AO2 SLP231 T01111150

Idő: 15:28 (20:28 UTC)

Előrejelzés

A jelentés 3 órával és 8 perccel ezelõtt készült, 17:20 UTC
Az előrejelzés 22-én 18 óra UTC és 23-én 18 óra UTC között érvényes
Nyugat-délnyugati szél 10 kt széllökések: 17 kt
Látótávolság: 10 km
Derült ég
22-én 2300 órától UTC szerint
Nyugat-délnyugati szél 5 kt
Látótávolság: 10 km
Derült ég

TAF: KRDG 221720Z 2218/2318 25010G17KT P6SM SKC FM222300 24005KT P6SM SKC

Meteorológiai megfigyelések és előrejelzések több, mint 4000 repülőtéren (METAR és TAF jelentéseket).

A térképen piros és sárga pontok jelzik az elérhető meteorológiai állomásokat.

Mozgassa az egeret a pont fölött, hogy megjelenjen az állomás neve.

Azután kattintson az időjárási megfigyelések és előrejelzések megtekintéséhez.

A térkép megváltoztatása: kattintson a fekete keresztel jelölt zöld gombra ráközelítéshez, a vonallal jelölt zöld gombra távolításhoz, vagy a zöld nyilakra a szomszédos térképek eléréséhez.


METAR-TAF: